createdAt,value
2018-12-19T00:02:06.461Z,20.90
2018-12-19T00:04:17.279Z,21.30
2018-12-19T00:06:28.128Z,20.03
2018-12-19T00:08:38.977Z,22.47
2018-12-19T00:10:49.803Z,18.37
2018-12-19T00:13:00.658Z,21.33
2018-12-19T00:15:11.715Z,21.90
2018-12-19T00:17:22.598Z,20.53
2018-12-19T00:19:33.412Z,22.07
2018-12-19T00:21:44.290Z,21.77
2018-12-19T00:23:55.184Z,18.30
2018-12-19T00:26:06.004Z,20.03
2018-12-19T00:28:17.739Z,18.53
2018-12-19T00:30:28.598Z,18.77
2018-12-19T00:32:39.443Z,16.43
2018-12-19T00:34:50.294Z,16.80
2018-12-19T00:37:01.150Z,17.53
2018-12-19T00:39:11.984Z,19.50
2018-12-19T00:41:23.682Z,19.63
2018-12-19T00:43:34.628Z,17.83
2018-12-19T00:45:45.489Z,20.87
2018-12-19T00:47:56.324Z,19.60
2018-12-19T00:50:07.313Z,19.83
2018-12-19T00:52:18.162Z,21.70
2018-12-19T00:54:29.112Z,22.23
2018-12-19T00:56:39.937Z,21.40
2018-12-19T00:58:50.818Z,19.87
2018-12-19T01:01:01.636Z,20.43
2018-12-19T01:03:12.499Z,20.77
2018-12-19T01:05:23.394Z,19.50
2018-12-19T01:07:34.232Z,19.70
2018-12-19T01:09:45.104Z,17.67
2018-12-19T01:11:55.934Z,18.50
2018-12-19T01:14:06.947Z,17.17
2018-12-19T01:16:17.790Z,24.10
2018-12-19T01:18:28.627Z,19.20
2018-12-19T01:20:39.473Z,15.50
2018-12-19T01:22:50.300Z,17.93
2018-12-19T01:25:01.153Z,18.53
2018-12-19T01:27:11.993Z,20.63
2018-12-19T01:29:23.710Z,19.10
2018-12-19T01:31:35.467Z,21.30
2018-12-19T01:33:46.313Z,18.83
2018-12-19T01:35:57.149Z,21.87
2018-12-19T01:38:07.956Z,21.27
2018-12-19T01:40:18.822Z,23.00
2018-12-19T01:42:29.648Z,21.77
2018-12-19T01:44:40.639Z,22.40
2018-12-19T01:46:51.504Z,22.60
2018-12-19T01:49:02.345Z,24.27
2018-12-19T01:51:13.284Z,22.60
2018-12-19T01:53:24.159Z,21.77
2018-12-19T01:55:35.132Z,22.97
2018-12-19T01:57:45.969Z,25.07
2018-12-19T01:59:56.784Z,21.33
2018-12-19T02:02:07.682Z,25.17
2018-12-19T02:04:18.496Z,22.63
2018-12-19T02:06:30.156Z,24.00
2018-12-19T02:08:41.049Z,23.30
2018-12-19T02:10:51.896Z,24.33
2018-12-19T02:13:02.861Z,21.77
2018-12-19T02:15:13.703Z,22.07
2018-12-19T02:17:24.616Z,22.70
2018-12-19T02:19:36.442Z,22.07
2018-12-19T02:21:47.288Z,21.23
2018-12-19T02:23:58.115Z,24.87
2018-12-19T02:26:09.065Z,21.33
2018-12-19T02:28:19.896Z,23.60
2018-12-19T02:30:30.852Z,22.17
2018-12-19T02:32:41.796Z,22.97
2018-12-19T02:34:52.626Z,21.50
2018-12-19T02:37:03.460Z,22.20
2018-12-19T02:39:14.277Z,22.43
2018-12-19T02:41:25.235Z,22.73
2018-12-19T02:43:36.077Z,20.43
2018-12-19T02:45:46.909Z,19.67
2018-12-19T02:47:57.755Z,22.33
2018-12-19T02:50:08.584Z,17.90
2018-12-19T02:52:19.426Z,22.83
2018-12-19T02:54:30.411Z,21.23
2018-12-19T02:56:41.256Z,20.23
2018-12-19T02:58:52.088Z,21.40
2018-12-19T03:01:02.914Z,21.23
2018-12-19T03:03:13.852Z,17.37
2018-12-19T03:05:24.701Z,19.37
2018-12-19T03:07:35.619Z,19.70
2018-12-19T03:09:46.562Z,20.00
2018-12-19T03:11:57.395Z,21.53
2018-12-19T03:14:08.226Z,21.27
2018-12-19T03:16:19.308Z,20.87
2018-12-19T03:18:30.136Z,19.80
2018-12-19T03:20:40.978Z,18.33
2018-12-19T03:22:51.914Z,19.53
2018-12-19T03:25:03.078Z,19.20
2018-12-19T03:27:13.927Z,20.73
2018-12-19T03:29:24.802Z,19.67
2018-12-19T03:31:35.793Z,19.93
2018-12-19T03:33:46.629Z,20.03
2018-12-19T03:36:00.267Z,21.23
2018-12-19T03:38:13.357Z,16.37
2018-12-19T03:40:24.257Z,19.47
2018-12-19T03:42:35.120Z,19.87
2018-12-19T03:44:45.957Z,19.10
2018-12-19T03:46:56.804Z,18.87
2018-12-19T03:49:07.686Z,19.70
2018-12-19T03:51:18.617Z,18.53
2018-12-19T03:53:29.457Z,22.27
2018-12-19T03:55:40.310Z,19.80
2018-12-19T03:57:51.365Z,18.57
2018-12-19T04:00:03.137Z,16.37
2018-12-19T04:02:13.997Z,19.10
2018-12-19T04:04:24.848Z,18.20
2018-12-19T04:06:35.739Z,18.43
2018-12-19T04:08:46.563Z,19.03
2018-12-19T04:10:57.509Z,16.97
2018-12-19T04:13:08.339Z,21.03
2018-12-19T04:15:19.409Z,18.70
2018-12-19T04:17:30.361Z,17.80
2018-12-19T04:19:41.175Z,19.57
2018-12-19T04:21:52.115Z,17.93
2018-12-19T04:24:03.288Z,17.50
2018-12-19T04:26:14.112Z,17.93
2018-12-19T04:28:24.949Z,20.57
2018-12-19T04:30:37.804Z,16.87
2018-12-19T04:32:49.053Z,19.07
2018-12-19T04:34:59.893Z,17.87
2018-12-19T04:37:10.727Z,18.33
2018-12-19T04:39:21.554Z,17.43
2018-12-19T04:41:32.410Z,15.80
2018-12-19T04:43:43.330Z,14.63
2018-12-19T04:45:54.190Z,15.53
2018-12-19T04:48:05.126Z,16.63
2018-12-19T04:50:15.942Z,15.53
2018-12-19T04:52:26.893Z,16.33
2018-12-19T04:54:37.711Z,17.47
2018-12-19T04:56:48.544Z,15.27
2018-12-19T04:58:59.417Z,14.00
2018-12-19T05:01:10.264Z,14.97
2018-12-19T05:03:21.100Z,15.07
2018-12-19T05:05:31.946Z,15.47
2018-12-19T05:07:43.041Z,14.87
2018-12-19T05:09:53.884Z,15.90
2018-12-19T05:12:04.700Z,15.93
2018-12-19T05:14:15.992Z,15.17
2018-12-19T05:16:26.848Z,15.03
2018-12-19T05:18:37.675Z,16.63
2018-12-19T05:20:48.642Z,15.47
2018-12-19T05:22:59.516Z,13.03
2018-12-19T05:25:12.695Z,17.43
2018-12-19T05:27:23.552Z,15.30
2018-12-19T05:29:34.394Z,14.13
2018-12-19T05:31:45.248Z,14.50
2018-12-19T05:33:56.104Z,16.40
2018-12-19T05:36:07.066Z,16.73
2018-12-19T05:38:17.924Z,13.17
2018-12-19T05:40:28.781Z,16.20
2018-12-19T05:42:39.661Z,15.83
2018-12-19T05:44:50.522Z,14.37
2018-12-19T05:47:01.369Z,15.63
2018-12-19T05:49:12.217Z,14.17
2018-12-19T05:51:23.037Z,13.63
2018-12-19T05:53:33.896Z,16.17
2018-12-19T05:55:44.752Z,10.30
2018-12-19T05:57:55.580Z,15.37
2018-12-19T06:00:07.501Z,15.83
2018-12-19T06:02:18.382Z,13.70
2018-12-19T06:04:29.194Z,17.13
2018-12-19T06:06:40.071Z,14.47
2018-12-19T06:08:50.904Z,14.07
2018-12-19T06:11:01.766Z,14.07
2018-12-19T06:13:12.632Z,13.17
2018-12-19T06:15:23.454Z,14.80
2018-12-19T06:17:34.329Z,15.27
2018-12-19T06:19:45.257Z,16.90
2018-12-19T06:21:56.120Z,15.33
2018-12-19T06:24:06.952Z,18.50
2018-12-19T06:26:17.795Z,20.03
2018-12-19T06:28:28.661Z,20.87
2018-12-19T06:30:39.500Z,23.00
2018-12-19T06:32:50.594Z,24.63
2018-12-19T06:35:01.556Z,19.27
2018-12-19T06:37:12.399Z,16.10
2018-12-19T06:39:23.373Z,16.27
2018-12-19T06:41:34.296Z,15.40
2018-12-19T06:43:45.161Z,13.63
2018-12-19T06:45:56.005Z,14.23
2018-12-19T06:48:06.847Z,14.10
2018-12-19T06:50:17.674Z,14.47
2018-12-19T06:52:28.520Z,14.43
2018-12-19T06:54:39.362Z,13.73
2018-12-19T06:56:50.197Z,16.73
2018-12-19T06:59:01.061Z,14.67
2018-12-19T07:01:12.013Z,14.50
2018-12-19T07:03:22.873Z,14.77
2018-12-19T07:05:33.729Z,12.10
2018-12-19T07:07:44.600Z,15.90
2018-12-19T07:09:55.451Z,15.57
2018-12-19T07:12:06.283Z,15.43
2018-12-19T07:14:17.206Z,16.63
2018-12-19T07:16:28.119Z,17.17
2018-12-19T07:18:38.992Z,16.30
2018-12-19T07:20:50.051Z,15.27
2018-12-19T07:23:00.924Z,17.30
2018-12-19T07:25:11.820Z,16.10
2018-12-19T07:27:22.636Z,15.27
2018-12-19T07:29:33.500Z,16.70
2018-12-19T07:31:44.344Z,19.33
2018-12-19T07:33:55.209Z,14.33
2018-12-19T07:36:06.033Z,17.57
2018-12-19T07:38:16.890Z,15.97
2018-12-19T07:40:27.758Z,16.50
2018-12-19T07:42:38.612Z,14.10
2018-12-19T07:44:49.493Z,14.67
2018-12-19T07:47:00.334Z,16.80
2018-12-19T07:49:11.214Z,19.50
2018-12-19T07:51:22.050Z,15.27
2018-12-19T07:53:32.948Z,16.83
2018-12-19T07:55:43.995Z,15.20
2018-12-19T07:57:54.851Z,12.87
2018-12-19T08:00:05.846Z,14.57
2018-12-19T08:02:16.690Z,14.60
2018-12-19T08:04:27.875Z,13.30
2018-12-19T08:06:38.876Z,13.60
2018-12-19T08:08:49.701Z,14.47
2018-12-19T08:11:00.580Z,13.97
2018-12-19T08:13:11.419Z,12.27
2018-12-19T08:15:22.281Z,13.27
2018-12-19T08:17:33.132Z,14.47
2018-12-19T08:19:43.976Z,11.57
2018-12-19T08:21:54.857Z,13.53
2018-12-19T08:24:05.733Z,15.60
2018-12-19T08:26:16.679Z,13.00
2018-12-19T08:28:27.538Z,13.87
2018-12-19T08:30:38.507Z,14.37
2018-12-19T08:32:49.385Z,13.83
2018-12-19T08:35:00.248Z,16.57
2018-12-19T08:37:11.154Z,15.40
2018-12-19T08:39:22.141Z,14.90
2018-12-19T08:41:33.184Z,13.97
2018-12-19T08:43:44.049Z,15.10
2018-12-19T08:45:55.371Z,13.30
2018-12-19T08:48:06.286Z,15.80
2018-12-19T08:50:17.140Z,14.47
2018-12-19T08:52:28.045Z,14.93
2018-12-19T08:54:38.921Z,16.07
2018-12-19T08:56:49.825Z,13.87
2018-12-19T08:59:00.703Z,15.47
2018-12-19T09:01:11.548Z,14.37
2018-12-19T09:03:22.422Z,13.10
2018-12-19T09:05:33.372Z,12.80
2018-12-19T09:07:44.348Z,15.67
2018-12-19T09:09:55.206Z,14.37
2018-12-19T09:12:06.074Z,13.50
2018-12-19T09:14:16.946Z,17.57
2018-12-19T09:16:27.799Z,16.80
2018-12-19T09:18:38.668Z,17.33
2018-12-19T09:20:49.526Z,15.30
2018-12-19T09:23:00.418Z,14.07
2018-12-19T09:25:11.277Z,15.53
2018-12-19T09:27:22.245Z,15.20
2018-12-19T09:29:33.123Z,18.00
2018-12-19T09:31:45.477Z,15.30
2018-12-19T09:33:57.292Z,16.23
2018-12-19T09:36:08.161Z,14.67
2018-12-19T09:38:19.150Z,14.43
2018-12-19T09:40:30.049Z,15.07
2018-12-19T09:42:40.942Z,14.97
2018-12-19T09:44:51.846Z,15.17
2018-12-19T09:47:02.837Z,13.87
2018-12-19T09:49:14.089Z,14.00
2018-12-19T09:51:25.060Z,16.10
2018-12-19T09:53:35.954Z,15.27
2018-12-19T09:55:46.813Z,16.00
2018-12-19T09:57:57.648Z,16.20
2018-12-19T10:00:10.803Z,14.63
2018-12-19T10:02:23.008Z,15.00
2018-12-19T10:04:33.912Z,17.33
2018-12-19T10:06:44.780Z,15.60
2018-12-19T10:08:55.647Z,16.47
2018-12-19T10:11:06.485Z,14.87
2018-12-19T10:13:17.335Z,16.27
2018-12-19T10:15:28.200Z,16.77
2018-12-19T10:17:41.046Z,12.93
2018-12-19T10:19:51.976Z,16.17
2018-12-19T10:22:02.947Z,14.33
2018-12-19T10:24:14.070Z,14.40
2018-12-19T10:26:24.944Z,14.90
2018-12-19T10:28:35.806Z,15.63
2018-12-19T10:30:46.724Z,13.93
2018-12-19T10:32:57.689Z,15.33
2018-12-19T10:35:09.211Z,15.70
2018-12-19T10:37:20.085Z,15.00
2018-12-19T10:39:31.036Z,16.73
2018-12-19T10:41:41.900Z,16.83
2018-12-19T10:43:52.785Z,15.47
2018-12-19T10:46:03.681Z,19.57
2018-12-19T10:48:14.545Z,17.33
2018-12-19T10:50:25.387Z,17.33
2018-12-19T10:52:36.296Z,16.73
2018-12-19T10:54:47.208Z,17.07
2018-12-19T10:56:58.081Z,13.13
2018-12-19T10:59:08.921Z,16.07
2018-12-19T11:01:19.783Z,15.63
2018-12-19T11:03:30.656Z,16.70
2018-12-19T11:05:41.546Z,14.93
2018-12-19T11:07:52.417Z,13.47
2018-12-19T11:10:05.144Z,16.20
2018-12-19T11:12:16.052Z,15.50
2018-12-19T11:14:27.193Z,13.70
2018-12-19T11:16:38.058Z,16.23
2018-12-19T11:18:48.924Z,15.83
2018-12-19T11:21:00.041Z,14.90
2018-12-19T11:23:10.938Z,16.57
2018-12-19T11:25:21.774Z,15.47
2018-12-19T11:27:32.765Z,14.13
2018-12-19T11:29:43.648Z,15.73
2018-12-19T11:31:54.597Z,14.53
2018-12-19T11:34:05.451Z,15.90
2018-12-19T11:36:16.278Z,13.53
2018-12-19T11:38:27.166Z,14.17
2018-12-19T11:40:38.021Z,15.10
2018-12-19T11:42:48.886Z,14.33
2018-12-19T11:44:59.747Z,13.33
2018-12-19T11:47:10.586Z,13.77
2018-12-19T11:49:22.053Z,12.90
2018-12-19T11:51:32.899Z,15.20
2018-12-19T11:53:43.834Z,12.80
2018-12-19T11:55:54.685Z,13.80
2018-12-19T11:58:05.536Z,14.20
2018-12-19T12:00:16.412Z,11.63
2018-12-19T12:02:27.274Z,13.93
2018-12-19T12:04:38.124Z,12.93
2018-12-19T12:06:49.042Z,14.20
2018-12-19T12:08:59.932Z,11.00
2018-12-19T12:11:10.779Z,14.30
2018-12-19T12:13:21.626Z,12.77
2018-12-19T12:15:32.492Z,14.53
2018-12-19T12:17:43.449Z,14.83
2018-12-19T12:19:54.297Z,13.80
2018-12-19T12:22:05.161Z,14.27
2018-12-19T12:24:16.053Z,16.27
2018-12-19T12:26:26.894Z,14.50
2018-12-19T12:28:37.745Z,12.80
2018-12-19T12:30:49.442Z,12.07
2018-12-19T12:33:00.300Z,13.37
2018-12-19T12:35:11.172Z,13.70
2018-12-19T12:37:22.194Z,14.03
2018-12-19T12:39:33.084Z,15.27
2018-12-19T12:41:43.937Z,12.43
2018-12-19T12:43:54.774Z,12.50
2018-12-19T12:46:05.632Z,13.40
2018-12-19T12:48:16.472Z,14.37
2018-12-19T12:50:27.457Z,12.27
2018-12-19T12:52:38.321Z,14.80
2018-12-19T12:54:49.188Z,14.10
2018-12-19T12:57:00.042Z,16.07
2018-12-19T12:59:10.904Z,16.23
2018-12-19T13:01:21.765Z,14.30
2018-12-19T13:03:32.646Z,14.73
2018-12-19T13:05:43.507Z,12.93
2018-12-19T13:07:54.389Z,13.37
2018-12-19T13:10:07.247Z,16.97
2018-12-19T13:12:18.117Z,13.03
2018-12-19T13:14:29.106Z,11.13
2018-12-19T13:16:40.010Z,13.73
2018-12-19T13:18:50.904Z,13.43
2018-12-19T13:21:01.753Z,13.10
2018-12-19T13:23:12.609Z,15.57
2018-12-19T13:25:23.498Z,14.50
2018-12-19T13:27:34.377Z,13.93
2018-12-19T13:29:45.264Z,11.27
2018-12-19T13:31:56.516Z,12.90
2018-12-19T13:34:07.413Z,9.90
2018-12-19T13:36:18.300Z,10.23
2018-12-19T13:38:29.153Z,9.80
2018-12-19T13:40:39.997Z,9.70
2018-12-19T13:42:51.734Z,11.80
2018-12-19T13:45:03.757Z,10.57
2018-12-19T13:47:14.683Z,10.43
2018-12-19T13:49:25.588Z,12.07
2018-12-19T13:51:36.486Z,14.00
2018-12-19T13:53:47.361Z,11.10
2018-12-19T13:55:58.227Z,10.83
2018-12-19T13:58:09.069Z,10.17
2018-12-19T14:00:20.693Z,15.73
2018-12-19T14:02:31.523Z,12.60
2018-12-19T14:04:42.622Z,14.07
2018-12-19T14:06:53.517Z,14.43
2018-12-19T14:09:05.198Z,16.33
2018-12-19T14:11:16.053Z,15.33
2018-12-19T14:13:26.921Z,15.23
2018-12-19T14:15:37.797Z,16.30
2018-12-19T14:17:48.666Z,15.07
2018-12-19T14:19:59.530Z,14.87
2018-12-19T14:22:10.392Z,15.03
2018-12-19T14:24:21.259Z,16.03
2018-12-19T14:26:32.140Z,13.00
2018-12-19T14:28:42.994Z,17.93
2018-12-19T14:30:53.872Z,15.00
2018-12-19T14:33:04.743Z,17.60
2018-12-19T14:35:15.621Z,14.80
2018-12-19T14:37:26.475Z,17.57
2018-12-19T14:39:37.356Z,15.30
2018-12-19T14:41:48.254Z,17.70
2018-12-19T14:43:59.124Z,14.60
2018-12-19T14:46:10.017Z,16.37
2018-12-19T14:48:20.861Z,15.90
2018-12-19T14:50:31.733Z,14.93
2018-12-19T14:52:42.619Z,13.97
2018-12-19T14:54:53.476Z,17.13
2018-12-19T14:57:05.892Z,13.53
2018-12-19T14:59:16.934Z,16.70
2018-12-19T15:01:27.805Z,13.20
2018-12-19T15:03:38.633Z,14.17
2018-12-19T15:05:49.522Z,13.97
2018-12-19T15:08:00.393Z,18.57
2018-12-19T15:10:11.249Z,14.30
2018-12-19T15:12:25.739Z,14.20
2018-12-19T15:14:35.004Z,16.33
2018-12-19T15:16:45.907Z,12.50
2018-12-19T15:18:56.795Z,13.60
2018-12-19T15:21:07.769Z,14.43
2018-12-19T15:23:18.612Z,15.10
2018-12-19T15:25:29.483Z,13.83
2018-12-19T15:27:40.411Z,15.27
2018-12-19T15:29:51.256Z,15.03
2018-12-19T15:32:02.264Z,15.73
2018-12-19T15:34:13.156Z,13.93
2018-12-19T15:36:24.160Z,16.57
2018-12-19T15:38:35.037Z,15.07
2018-12-19T15:40:45.907Z,14.97
2018-12-19T15:42:56.784Z,15.70
2018-12-19T15:45:07.689Z,15.57
2018-12-19T15:47:18.514Z,13.73
2018-12-19T15:49:29.409Z,14.57
2018-12-19T15:51:40.269Z,17.57
2018-12-19T15:53:51.131Z,16.20
2018-12-19T15:56:02.009Z,17.67
2018-12-19T15:58:13.013Z,16.97
2018-12-19T16:00:23.885Z,16.50
2018-12-19T16:02:34.716Z,19.20
2018-12-19T16:04:45.620Z,14.77
2018-12-19T16:06:56.449Z,15.70
2018-12-19T16:09:07.347Z,13.90
2018-12-19T16:11:18.329Z,18.83
2018-12-19T16:13:29.198Z,20.70
2018-12-19T16:15:40.172Z,17.37
2018-12-19T16:17:51.119Z,17.70
2018-12-19T16:20:03.048Z,15.33
2018-12-19T16:22:13.894Z,15.90
2018-12-19T16:24:24.768Z,15.13
2018-12-19T16:26:35.650Z,16.97
2018-12-19T16:28:46.509Z,13.67
2018-12-19T16:30:57.393Z,15.10
2018-12-19T16:33:08.248Z,16.37
2018-12-19T16:35:19.138Z,14.67
2018-12-19T16:37:29.972Z,16.83
2018-12-19T16:39:40.820Z,15.13
2018-12-19T16:41:51.694Z,13.63
2018-12-19T16:44:02.600Z,15.63
2018-12-19T16:46:13.465Z,14.30
2018-12-19T16:48:24.329Z,14.93
2018-12-19T16:50:35.215Z,12.53
2018-12-19T16:52:46.195Z,16.37
2018-12-19T16:54:57.169Z,13.97
2018-12-19T16:57:08.179Z,15.57
2018-12-19T16:59:19.035Z,15.20
2018-12-19T17:01:29.952Z,16.93
2018-12-19T17:03:40.810Z,15.70
2018-12-19T17:05:51.696Z,13.83
2018-12-19T17:08:02.758Z,14.10
2018-12-19T17:10:13.638Z,15.13
2018-12-19T17:12:24.502Z,15.93
2018-12-19T17:14:35.380Z,12.97
2018-12-19T17:16:46.238Z,12.20
2018-12-19T17:18:57.098Z,13.80
2018-12-19T17:21:07.929Z,9.37
2018-12-19T17:23:18.770Z,10.40
2018-12-19T17:25:29.645Z,9.03
2018-12-19T17:27:40.496Z,13.97
2018-12-19T17:29:51.334Z,11.13
2018-12-19T17:32:02.518Z,10.80
2018-12-19T17:34:13.378Z,10.90
2018-12-19T17:36:24.209Z,18.37
2018-12-19T17:38:35.070Z,12.40
2018-12-19T17:40:45.910Z,17.50
2018-12-19T17:42:59.551Z,18.00
2018-12-19T17:45:09.619Z,28.30
2018-12-19T17:47:20.558Z,25.60
2018-12-19T17:49:31.421Z,21.07
2018-12-19T17:51:42.269Z,17.43
2018-12-19T17:53:53.124Z,17.67
2018-12-19T17:56:03.987Z,12.40
2018-12-19T17:58:14.850Z,12.80
2018-12-19T18:00:25.691Z,11.23
2018-12-19T18:02:36.565Z,9.37
2018-12-19T18:04:47.381Z,12.73
2018-12-19T18:06:58.255Z,18.37
2018-12-19T18:09:09.173Z,12.93
2018-12-19T18:11:20.026Z,13.97
2018-12-19T18:13:31.037Z,11.07
2018-12-19T18:15:41.857Z,13.37
2018-12-19T18:17:52.710Z,13.33
2018-12-19T18:20:05.037Z,10.60
2018-12-19T18:22:15.911Z,15.13
2018-12-19T18:24:26.831Z,15.37
2018-12-19T18:26:37.692Z,22.27
2018-12-19T18:28:48.529Z,25.00
2018-12-19T18:30:59.444Z,20.57
2018-12-19T18:33:10.320Z,16.77
2018-12-19T18:35:21.173Z,13.10
2018-12-19T18:37:33.427Z,21.33
2018-12-19T18:39:44.635Z,18.07
2018-12-19T18:41:55.471Z,20.07
2018-12-19T18:44:06.293Z,19.00
2018-12-19T18:46:17.173Z,11.93
2018-12-19T18:48:27.989Z,13.13
2018-12-19T18:50:38.876Z,11.67
2018-12-19T18:52:49.778Z,7.87
2018-12-19T18:55:00.738Z,10.03
2018-12-19T18:57:11.629Z,10.10
2018-12-19T18:59:22.494Z,11.27
2018-12-19T19:01:33.384Z,12.20
2018-12-19T19:03:44.379Z,9.67
2018-12-19T19:05:55.390Z,11.00
2018-12-19T19:08:06.238Z,10.17
2018-12-19T19:10:17.216Z,11.00
2018-12-19T19:12:28.077Z,11.73
2018-12-19T19:14:38.898Z,11.47
2018-12-19T19:16:49.856Z,10.40
2018-12-19T19:19:00.668Z,9.87
2018-12-19T19:21:11.585Z,12.13
2018-12-19T19:23:22.436Z,10.77
2018-12-19T19:25:33.423Z,12.63
2018-12-19T19:27:44.355Z,11.13
2018-12-19T19:29:55.191Z,10.90
2018-12-19T19:32:06.070Z,11.87
2018-12-19T19:34:17.452Z,8.70
2018-12-19T19:36:28.384Z,10.33
2018-12-19T19:38:39.219Z,11.47
2018-12-19T19:40:50.084Z,12.70
2018-12-19T19:43:00.976Z,10.47
2018-12-19T19:45:12.179Z,9.93
2018-12-19T19:47:23.158Z,10.37
2018-12-19T19:49:34.199Z,9.33
2018-12-19T19:51:45.051Z,8.60
2018-12-19T19:53:55.973Z,9.60
2018-12-19T19:56:06.845Z,8.17
2018-12-19T19:58:17.699Z,8.57
2018-12-19T20:00:30.066Z,9.37
2018-12-19T20:02:40.948Z,9.13
2018-12-19T20:04:51.785Z,9.23
2018-12-19T20:07:02.778Z,8.37
2018-12-19T20:09:13.645Z,10.30
2018-12-19T20:11:24.501Z,10.00
2018-12-19T20:13:35.390Z,11.67
2018-12-19T20:15:46.317Z,9.80
2018-12-19T20:17:57.189Z,7.73
2018-12-19T20:20:08.142Z,6.73
2018-12-19T20:22:19.093Z,7.20
2018-12-19T20:24:30.023Z,6.77
2018-12-19T20:26:40.868Z,6.60
2018-12-19T20:28:51.718Z,5.10
2018-12-19T20:31:02.968Z,6.43
2018-12-19T20:33:13.801Z,6.37
2018-12-19T20:35:24.685Z,4.93
2018-12-19T20:37:35.554Z,5.67
2018-12-19T20:39:46.452Z,6.73
2018-12-19T20:41:57.281Z,7.67
2018-12-19T20:44:08.117Z,5.30
2018-12-19T20:46:19.125Z,5.67
2018-12-19T20:48:30.000Z,4.00
2018-12-19T20:50:40.833Z,3.87
2018-12-19T20:52:51.721Z,3.00
2018-12-19T20:55:03.577Z,3.50
2018-12-19T20:57:14.437Z,4.23
2018-12-19T20:59:25.291Z,4.77
2018-12-19T21:01:36.225Z,3.80
2018-12-19T21:03:47.077Z,4.97
2018-12-19T21:05:57.885Z,3.60
2018-12-19T21:08:08.752Z,5.17
2018-12-19T21:10:19.618Z,4.60
2018-12-19T21:12:30.532Z,4.10
2018-12-19T21:14:41.352Z,5.20
2018-12-19T21:16:58.264Z,4.30
2018-12-19T21:19:09.169Z,4.83
2018-12-19T21:21:20.001Z,5.63
2018-12-19T21:23:30.891Z,4.60
2018-12-19T21:25:41.755Z,5.53
2018-12-19T21:27:52.617Z,4.47
2018-12-19T21:30:06.019Z,3.57
2018-12-19T21:32:16.872Z,4.20
2018-12-19T21:34:27.863Z,5.63
2018-12-19T21:36:38.714Z,4.23
2018-12-19T21:38:49.728Z,3.87
2018-12-19T21:41:00.642Z,5.13
2018-12-19T21:43:11.499Z,3.70
2018-12-19T21:45:22.377Z,4.77
2018-12-19T21:47:33.289Z,4.57
2018-12-19T21:49:44.297Z,4.60
2018-12-19T21:51:55.191Z,4.20
2018-12-19T21:54:06.065Z,4.43
2018-12-19T21:56:17.008Z,3.43
2018-12-19T21:58:27.979Z,6.33
2018-12-19T22:00:40.018Z,5.43
2018-12-19T22:02:50.864Z,3.80
2018-12-19T22:05:01.778Z,3.67
2018-12-19T22:07:12.752Z,3.23
2018-12-19T22:09:23.765Z,3.33
2018-12-19T22:11:34.857Z,4.20
2018-12-19T22:13:45.801Z,2.93
2018-12-19T22:15:56.758Z,3.57
2018-12-19T22:18:13.651Z,3.77
2018-12-19T22:20:24.615Z,3.57
2018-12-19T22:22:35.618Z,3.27
2018-12-19T22:24:46.525Z,3.03
2018-12-19T22:26:57.540Z,3.40
2018-12-19T22:29:08.456Z,2.50
2018-12-19T22:31:19.383Z,3.93
2018-12-19T22:33:30.237Z,3.30
2018-12-19T22:35:41.127Z,3.90
2018-12-19T22:37:52.084Z,4.33
2018-12-19T22:40:05.761Z,4.10
2018-12-19T22:42:16.652Z,3.57
2018-12-19T22:44:27.587Z,3.70
2018-12-19T22:46:38.578Z,4.60
2018-12-19T22:48:49.460Z,3.10
2018-12-19T22:51:00.380Z,3.97
2018-12-19T22:53:11.363Z,4.87
2018-12-19T22:55:22.258Z,3.73
2018-12-19T22:57:33.126Z,3.77
2018-12-19T22:59:43.996Z,3.03
2018-12-19T23:02:01.098Z,6.13
2018-12-19T23:04:12.129Z,6.60
2018-12-19T23:06:23.088Z,5.57
2018-12-19T23:08:34.058Z,4.50
2018-12-19T23:10:44.965Z,6.07
2018-12-19T23:12:55.828Z,7.13
2018-12-19T23:15:06.910Z,6.33
2018-12-19T23:17:23.990Z,3.70
2018-12-19T23:19:35.081Z,4.13
2018-12-19T23:21:46.074Z,4.20
2018-12-19T23:23:57.016Z,3.87
2018-12-19T23:26:07.868Z,3.40
2018-12-19T23:28:18.931Z,6.20
2018-12-19T23:30:29.906Z,4.33
2018-12-19T23:32:41.011Z,4.70
2018-12-19T23:34:52.057Z,3.70
2018-12-19T23:37:02.913Z,3.77
2018-12-19T23:39:13.761Z,2.97
2018-12-19T23:41:24.723Z,3.53
2018-12-19T23:43:35.588Z,3.80
2018-12-19T23:45:46.615Z,3.50
2018-12-19T23:47:57.530Z,3.50
2018-12-19T23:50:08.570Z,3.07
2018-12-19T23:52:19.636Z,3.10
2018-12-19T23:54:30.622Z,3.10
2018-12-19T23:56:41.589Z,4.70
2018-12-19T23:58:52.546Z,3.53
